Time;durP1;ratioP1;P1;durP2;ratioP2;P2;SDS_P1;SDS_P2;PMS_P1;PMS_P2;Temp;Humidity;BMP_temperature;BMP_pressure;BME280_temperature;BME280_humidity;BME280_pressure;Samples;Min_cycle;Max_cycle;Signal;HPM_P1;HPM_P2
2021/11/17 02:27:26;;;;;;;43.50;22.00;;;;;;;-4.65;72.04;100835.45;106338;1315;138132;-58
2021/11/17 02:30:34;;;;;;;41.10;22.80;;;;;;;-4.69;71.82;100836.55;106473;1315;22424;-57
2021/11/17 02:33:09;;;;;;;43.30;21.10;;;;;;;-4.75;71.64;100831.89;104890;1325;138984;-58
2021/11/17 02:35:40;;;;;;;40.40;22.40;;;;;;;-4.79;71.70;100837.89;106107;1318;22433;-58
2021/11/17 02:38:11;;;;;;;39.70;21.80;;;;;;;-4.84;71.42;100833.89;105956;1318;139556;-57
2021/11/17 02:41:04;;;;;;;45.90;24.10;;;;;;;-4.89;71.37;100836.45;106118;1318;23761;-58
2021/11/17 02:43:53;;;;;;;45.90;22.80;;;;;;;-4.96;71.39;100833.45;105966;1319;138929;-58
2021/11/17 02:46:40;;;;;;;44.80;22.10;;;;;;;-5.01;71.50;100832.98;106089;1319;23246;-58
2021/11/17 02:49:27;;;;;;;46.20;24.00;;;;;;;-5.09;71.68;100825.48;105974;1319;139002;-57
2021/11/17 02:52:13;;;;;;;64.40;26.80;;;;;;;-5.09;71.73;100828.89;106065;1322;23487;-58
2021/11/17 02:55:25;;;;;;;48.00;24.60;;;;;;;-5.11;71.74;100836.48;105952;1321;22404;-58
2021/11/17 02:58:01;;;;;;;59.90;27.00;;;;;;;-5.13;71.71;100838.58;105296;1329;23225;-58
2021/11/17 03:00:44;;;;;;;58.70;27.40;;;;;;;-5.16;71.52;100837.90;105331;1327;22397;-58
2021/11/17 03:03:21;;;;;;;64.00;28.10;;;;;;;-5.18;71.63;100837.77;105185;1328;139445;-58
2021/11/17 03:06:01;;;;;;;45.70;20.60;;;;;;;-5.20;71.69;100838.98;105776;1322;22422;-57
2021/11/17 03:08:34;;;;;;;58.90;25.10;;;;;;;-5.22;71.58;100839.70;105644;1321;139060;-58
2021/11/17 03:11:21;;;;;;;51.40;24.70;;;;;;;-5.26;71.62;100839.46;105764;1322;22427;-57
2021/11/17 03:14:17;;;;;;;54.30;23.90;;;;;;;-5.29;71.70;100835.70;105675;1321;139578;-57
2021/11/17 03:17:15;;;;;;;46.30;23.00;;;;;;;-5.33;71.62;100829.39;105843;1326;22526;-58
2021/11/17 03:19:56;;;;;;;47.10;25.00;;;;;;;-5.34;71.81;100827.52;105741;1321;140233;-58
2021/11/17 03:22:30;;;;;;;47.20;23.30;;;;;;;-5.37;71.79;100823.55;105153;1324;22417;-58
2021/11/17 03:25:23;;;;;;;47.90;23.20;;;;;;;-5.37;71.54;100832.39;105366;1321;22555;-58
2021/11/17 03:28:45;;;;;;;54.70;23.90;;;;;;;-5.39;71.57;100829.86;105714;1322;139955;-58
2021/11/17 03:31:31;;;;;;;41.60;20.80;;;;;;;-5.41;71.68;100827.73;105215;1328;139183;-58
2021/11/17 03:34:16;;;;;;;41.70;22.40;;;;;;;-5.43;71.56;100828.99;105806;1322;22434;-58
2021/11/17 03:36:58;;;;;;;43.20;21.60;;;;;;;-5.46;71.61;100829.73;105829;1321;22316;-57
2021/11/17 03:39:58;;;;;;;45.00;21.60;;;;;;;-5.49;71.41;100825.44;105176;1321;138583;-58
2021/11/17 03:43:05;;;;;;;43.40;21.70;;;;;;;-5.53;71.34;100826.13;105710;1322;22531;-58
2021/11/17 03:46:11;;;;;;;47.60;23.10;;;;;;;-5.54;71.59;100822.84;105666;1321;138576;-58
2021/11/17 03:48:54;;;;;;;45.90;20.60;;;;;;;-5.54;71.82;100824.58;105115;1328;22466;-58
2021/11/17 03:51:37;;;;;;;48.20;22.40;;;;;;;-5.52;71.75;100823.03;104961;1327;140177;-59
2021/11/17 03:54:08;;;;;;;44.60;20.50;;;;;;;-5.51;71.86;100818.32;105049;1327;22532;-58
2021/11/17 03:56:41;;;;;;;43.10;21.40;;;;;;;-5.50;71.94;100817.19;104967;1333;140501;-58
2021/11/17 03:59:20;;;;;;;42.60;21.20;;;;;;;-5.49;72.01;100816.70;104961;1327;22445;-58
2021/11/17 04:02:21;;;;;;;42.00;20.30;;;;;;;-5.47;71.88;100813.54;105220;1321;140282;-58
2021/11/17 04:05:26;;;;;;;44.40;21.40;;;;;;;-5.43;72.35;100811.44;105862;1322;22467;-58
2021/11/17 04:08:45;;;;;;;38.60;19.10;;;;;;;-5.38;72.53;100811.04;105767;1320;139808;-58
2021/11/17 04:11:22;;;;;;;35.30;17.50;;;;;;;-5.31;72.80;100812.78;105120;1328;22400;-58
2021/11/17 04:13:58;;;;;;;39.30;19.70;;;;;;;-5.30;72.79;100806.55;104943;1327;140162;-58
2021/11/17 04:16:45;;;;;;;39.70;20.50;;;;;;;-5.26;72.75;100807.10;105143;1328;22730;-58
2021/11/17 04:19:26;;;;;;;44.30;23.00;;;;;;;-5.26;72.63;100805.48;105127;1332;22541;-58
2021/11/17 04:21:57;;;;;;;40.40;19.50;;;;;;;-5.26;72.49;100804.56;104963;1327;138475;-58
2021/11/17 04:24:45;;;;;;;42.30;20.30;;;;;;;-5.25;72.56;100806.52;105680;1322;23733;-57
2021/11/17 04:27:43;;;;;;;35.30;19.40;;;;;;;-5.26;72.67;100803.17;104616;1327;138912;-58
2021/11/17 04:30:30;;;;;;;34.80;19.00;;;;;;;-5.24;72.74;100798.58;105014;1328;23286;-58
2021/11/17 04:33:32;;;;;;;36.60;17.70;;;;;;;-5.21;73.14;100801.73;104892;1327;139574;-57
2021/11/17 04:36:07;;;;;;;33.60;17.60;;;;;;;-5.16;73.31;100798.95;104254;1327;22317;-58
2021/11/17 04:39:03;;;;;;;31.30;16.40;;;;;;;-5.14;73.25;100797.71;104916;1327;138979;-58
2021/11/17 04:41:59;;;;;;;36.30;18.40;;;;;;;-5.13;72.98;100794.45;105026;1327;22445;-58
2021/11/17 04:44:35;;;;;;;37.20;19.80;;;;;;;-5.12;72.75;100793.31;104912;1327;140719;-58
2021/11/17 04:47:21;;;;;;;37.40;18.80;;;;;;;-5.14;72.49;100792.93;105425;1321;23818;-58
2021/11/17 04:50:04;;;;;;;44.90;20.70;;;;;;;-5.14;72.48;100789.77;105514;1321;138905;-58
2021/11/17 04:52:55;;;;;;;41.10;18.80;;;;;;;-5.12;72.79;100790.68;105841;1322;22320;-58
2021/11/17 04:55:56;;;;;;;37.80;19.80;;;;;;;-5.11;72.39;100793.12;105052;1328;22464;-58
2021/11/17 04:58:49;;;;;;;34.50;19.30;;;;;;;-5.11;72.53;100792.23;104288;1336;22566;-58
2021/11/17 05:01:26;;;;;;;46.90;21.70;;;;;;;-5.09;72.71;100794.32;104365;1335;22320;-58
2021/11/17 05:04:15;;;;;;;47.40;20.40;;;;;;;-5.07;72.87;100790.65;104310;1336;139532;-58
2021/11/17 05:06:56;;;;;;;46.00;20.60;;;;;;;-5.09;72.36;100786.16;104915;1330;23377;-58
2021/11/17 05:09:44;;;;;;;47.90;22.10;;;;;;;-5.13;72.06;100789.52;104454;1330;141006;-58
2021/11/17 05:12:19;;;;;;;53.90;24.30;;;;;;;-5.17;71.78;100789.34;104902;1330;22327;-59
2021/11/17 05:14:53;;;;;;;53.30;24.10;;;;;;;-5.19;71.94;100790.56;104759;1331;139829;-58
2021/11/17 05:17:27;;;;;;;53.40;22.80;;;;;;;-5.20;72.07;100783.73;104937;1330;22372;-59
2021/11/17 05:20:01;;;;;;;63.80;28.00;;;;;;;-5.21;72.03;100782.46;104441;1328;683333;-58
2021/11/17 05:22:50;;;;;;;64.50;28.60;;;;;;;-5.22;72.00;100780.95;104846;1330;138546;-58
2021/11/17 05:25:37;;;;;;;74.70;29.00;;;;;;;-5.24;72.02;100779.27;104923;1329;22554;-58
2021/11/17 05:28:23;;;;;;;71.50;28.40;;;;;;;-5.26;72.07;100779.48;104865;1330;138520;-58
2021/11/17 05:31:00;;;;;;;67.20;29.70;;;;;;;-5.29;72.02;100779.17;104363;1330;22326;-58
2021/11/17 05:33:40;;;;;;;72.00;28.30;;;;;;;-5.32;72.31;100780.98;105226;1323;140234;-58
2021/11/17 05:36:32;;;;;;;68.10;26.40;;;;;;;-5.32;72.43;100784.92;105927;1315;22404;-58
2021/11/17 05:39:21;;;;;;;54.80;25.70;;;;;;;-5.29;72.78;100784.48;106123;1315;138479;-58
2021/11/17 05:42:26;;;;;;;61.20;26.40;;;;;;;-5.26;73.02;100783.52;106049;1315;22401;-58
2021/11/17 05:45:16;;;;;;;61.20;26.60;;;;;;;-5.22;73.20;100781.98;106172;1314;140238;-58
2021/11/17 05:48:26;;;;;;;63.60;27.60;;;;;;;-5.18;73.39;100775.98;106298;1315;22313;-58
2021/11/17 05:51:00;;;;;;;56.10;24.90;;;;;;;-5.12;73.57;100767.48;105762;1322;139399;-58
2021/11/17 05:53:53;;;;;;;50.90;24.60;;;;;;;-5.07;73.79;100766.04;105831;1322;22509;-58
2021/11/17 05:56:32;;;;;;;51.20;24.50;;;;;;;-5.00;74.25;100774.05;105822;1321;139034;-58
2021/11/17 05:59:19;;;;;;;50.10;22.30;;;;;;;-4.93;74.41;100775.50;105917;1320;22418;-58
2021/11/17 06:01:59;;;;;;;50.80;24.60;;;;;;;-4.86;74.63;100771.11;105802;1320;23587;-58
2021/11/17 06:04:27;;;;;;;46.50;20.60;;;;;;;-4.79;74.89;100771.92;105761;1321;138443;-59
2021/11/17 06:06:56;;;;;;;57.90;23.60;;;;;;;-4.71;75.20;100769.13;105895;1319;22476;-59
2021/11/17 06:09:24;;;;;;;68.40;31.30;;;;;;;-4.63;75.29;100762.13;105566;1319;139772;-59
2021/11/17 06:11:56;;;;;;;77.30;39.80;;;;;;;-4.54;75.52;100758.83;105982;1324;22394;-59
2021/11/17 06:14:27;;;;;;;94.90;43.20;;;;;;;-4.44;76.09;100756.55;105408;1321;138768;-59
2021/11/17 06:17:00;;;;;;;64.80;34.20;;;;;;;-4.34;76.43;100756.92;106025;1320;23233;-59
2021/11/17 06:19:31;;;;;;;53.60;28.70;;;;;;;-4.22;76.48;100754.34;105921;1321;22663;-59
2021/11/17 06:21:59;;;;;;;49.70;24.00;;;;;;;-4.12;76.82;100755.42;105699;1321;138712;-59
2021/11/17 06:24:28;;;;;;;42.40;22.90;;;;;;;-4.03;77.02;100748.02;105676;1324;23354;-59
2021/11/17 06:26:56;;;;;;;46.30;22.40;;;;;;;-3.93;77.23;100755.11;105800;1316;138567;-59
2021/11/17 06:29:34;;;;;;;45.30;21.80;;;;;;;-3.82;77.25;100755.05;106198;1314;23297;-59
2021/11/17 06:32:02;;;;;;;40.50;23.10;;;;;;;-3.72;77.58;100754.98;106179;1317;22458;-59
2021/11/17 06:34:53;;;;;;;49.10;22.10;;;;;;;-3.61;77.61;100755.65;106017;1319;138302;-58
2021/11/17 06:37:22;;;;;;;41.80;21.10;;;;;;;-3.50;77.62;100756.74;106315;1315;22534;-58
2021/11/17 06:39:52;;;;;;;37.30;20.00;;;;;;;-3.40;77.76;100756.43;106100;1317;140618;-58
2021/11/17 06:42:30;;;;;;;36.80;19.80;;;;;;;-3.30;77.68;100755.83;106239;1320;22464;-59
2021/11/17 06:44:58;;;;;;;47.10;20.70;;;;;;;-3.19;77.71;100755.40;106190;1315;138540;-58
2021/11/17 06:47:26;;;;;;;41.10;20.30;;;;;;;-3.10;77.72;100757.20;106222;1316;23614;-58
2021/11/17 06:49:55;;;;;;;41.10;19.60;;;;;;;-3.03;77.71;100754.95;106245;1315;22477;-58
2021/11/17 06:52:23;;;;;;;36.50;18.70;;;;;;;-2.91;77.46;100759.17;106128;1315;138471;-59
2021/11/17 06:54:51;;;;;;;34.10;18.90;;;;;;;-2.82;77.35;100753.17;106199;1315;23160;-59
2021/11/17 06:57:19;;;;;;;44.30;22.70;;;;;;;-2.72;77.32;100758.70;106078;1315;139593;-63
2021/11/17 06:59:47;;;;;;;53.10;28.40;;;;;;;-2.63;77.27;100757.31;106175;1314;23469;-63
2021/11/17 07:02:16;;;;;;;47.40;21.10;;;;;;;-2.53;77.16;100756.34;106088;1316;138982;-63
2021/11/17 07:04:44;;;;;;;33.70;19.80;;;;;;;-2.42;77.14;100758.39;106154;1318;23409;-63
2021/11/17 07:07:21;;;;;;;36.20;19.70;;;;;;;-2.33;77.05;100764.23;106134;1315;22481;-64
2021/11/17 07:09:49;;;;;;;42.70;18.90;;;;;;;-2.24;76.98;100760.33;106216;1318;139039;-63
2021/11/17 07:12:17;;;;;;;43.70;19.70;;;;;;;-2.15;76.84;100763.59;106389;1318;23283;-63
2021/11/17 07:14:45;;;;;;;53.60;25.50;;;;;;;-2.07;76.73;100762.64;106202;1319;138640;-63
2021/11/17 07:17:15;;;;;;;47.50;24.80;;;;;;;-1.98;76.51;100759.78;106319;1318;22672;-64
2021/11/17 07:19:43;;;;;;;43.00;22.60;;;;;;;-1.90;76.27;100757.45;106344;1316;22468;-63
2021/11/17 07:22:11;;;;;;;42.50;23.00;;;;;;;-1.83;76.26;100756.60;106175;1316;138315;-62
2021/11/17 07:24:39;;;;;;;42.00;22.30;;;;;;;-1.79;76.02;100753.48;106372;1318;22539;-62
2021/11/17 07:27:11;;;;;;;36.60;19.50;;;;;;;-1.71;75.62;100756.10;106165;1315;140128;-62
2021/11/17 07:29:40;;;;;;;32.90;18.80;;;;;;;-1.65;75.55;100754.45;106324;1315;23139;-62
2021/11/17 07:32:08;;;;;;;34.20;18.60;;;;;;;-1.59;75.44;100749.41;106378;1313;22414;-62
2021/11/17 07:34:36;;;;;;;43.30;21.70;;;;;;;-1.52;75.18;100744.98;106243;1315;138727;-64
2021/11/17 07:37:04;;;;;;;41.00;21.50;;;;;;;-1.45;75.38;100748.40;106360;1315;22618;-62
2021/11/17 07:39:33;;;;;;;39.70;19.00;;;;;;;-1.38;75.19;100745.23;105488;1315;140463;-63
2021/11/17 07:42:04;;;;;;;37.50;20.30;;;;;;;-1.35;75.00;100745.27;106101;1313;24110;-64
2021/11/17 07:44:32;;;;;;;41.90;20.40;;;;;;;-1.32;74.71;100743.70;106202;1318;141119;-62
2021/11/17 07:47:00;;;;;;;43.00;19.40;;;;;;;-1.26;74.70;100748.98;106372;1316;22492;-62
2021/11/17 07:49:29;;;;;;;40.50;21.30;;;;;;;-1.22;74.91;100742.39;106331;1315;22574;-62
2021/11/17 07:51:57;;;;;;;35.50;18.40;;;;;;;-1.10;74.79;100746.17;106277;1315;138550;-65
2021/11/17 07:54:26;;;;;;;42.00;19.80;;;;;;;-1.02;74.78;100746.83;106271;1313;22561;-62
2021/11/17 07:56:54;;;;;;;37.30;20.00;;;;;;;-0.97;74.33;100747.52;106257;1315;139396;-62
2021/11/17 07:59:23;;;;;;;40.00;19.00;;;;;;;-0.91;74.17;100747.23;106272;1315;23171;-62
2021/11/17 08:01:52;;;;;;;36.60;18.10;;;;;;;-0.86;74.15;100750.91;106083;1316;23617;-62
2021/11/17 08:04:22;;;;;;;31.30;17.70;;;;;;;-0.83;74.15;100752.84;106121;1315;139246;-61
2021/11/17 08:06:51;;;;;;;36.20;16.70;;;;;;;-0.79;74.03;100750.17;106260;1315;23261;-62
2021/11/17 08:09:22;;;;;;;27.50;15.10;;;;;;;-0.72;74.24;100751.56;106059;1317;138910;-62
2021/11/17 08:11:50;;;;;;;31.00;15.80;;;;;;;-0.67;73.83;100747.05;106351;1316;22450;-62
2021/11/17 08:14:19;;;;;;;33.10;15.80;;;;;;;-0.59;73.96;100745.48;106250;1318;138554;-61
2021/11/17 08:16:51;;;;;;;34.60;15.20;;;;;;;-0.54;73.72;100742.83;106403;1317;22296;-61
2021/11/17 08:19:19;;;;;;;32.20;17.30;;;;;;;-0.51;73.57;100742.82;106350;1315;22451;-62
2021/11/17 08:21:47;;;;;;;30.20;16.90;;;;;;;-0.50;73.30;100745.04;106348;1319;138345;-62
2021/11/17 08:24:16;;;;;;;35.00;17.60;;;;;;;-0.48;73.47;100750.89;106270;1317;23259;-62
2021/11/17 08:26:44;;;;;;;29.40;13.80;;;;;;;-0.46;73.10;100745.70;106194;1319;139994;-62
2021/11/17 08:29:13;;;;;;;30.70;16.60;;;;;;;-0.43;72.85;100745.88;106499;1318;22421;-62
2021/11/17 08:31:41;;;;;;;38.60;17.00;;;;;;;-0.40;72.83;100745.66;106448;1313;22506;-62
2021/11/17 08:34:10;;;;;;;36.50;16.80;;;;;;;-0.39;72.78;100746.75;106319;1313;139222;-62
2021/11/17 08:36:38;;;;;;;44.20;19.00;;;;;;;-0.36;72.66;100749.35;106452;1313;22438;-62
2021/11/17 08:39:06;;;;;;;48.90;23.70;;;;;;;-0.36;72.57;100740.79;106251;1316;138429;-59
2021/11/17 08:41:36;;;;;;;33.10;17.40;;;;;;;-0.32;72.41;100744.12;106490;1313;23267;-57
2021/11/17 08:44:04;;;;;;;31.80;17.90;;;;;;;-0.31;72.31;100742.91;106480;1313;23219;-57
2021/11/17 08:46:33;;;;;;;30.00;16.00;;;;;;;-0.26;72.23;100737.95;106395;1313;138088;-57
2021/11/17 08:49:03;;;;;;;27.70;15.70;;;;;;;-0.22;72.39;100735.23;106478;1318;22475;-57
2021/11/17 08:51:31;;;;;;;28.70;14.70;;;;;;;-0.17;72.21;100738.39;106220;1313;138536;-57
2021/11/17 08:54:01;;;;;;;27.50;15.00;;;;;;;-0.11;71.87;100738.11;106469;1317;22511;-57
2021/11/17 08:56:30;;;;;;;28.50;14.20;;;;;;;-0.04;72.04;100731.70;106371;1313;140640;-57
2021/11/17 08:58:58;;;;;;;21.20;12.50;;;;;;;0.03;71.92;100729.94;106490;1313;22509;-56
2021/11/17 09:01:27;;;;;;;23.50;12.90;;;;;;;0.07;71.59;100725.52;106359;1316;22386;-56
2021/11/17 09:03:57;;;;;;;25.10;13.60;;;;;;;0.11;71.29;100717.60;106325;1313;138132;-57
2021/11/17 09:06:25;;;;;;;23.10;12.20;;;;;;;0.17;71.23;100719.11;106421;1313;22633;-57
2021/11/17 09:08:53;;;;;;;27.20;12.60;;;;;;;0.25;71.10;100717.02;106372;1313;138193;-57
2021/11/17 09:11:21;;;;;;;22.60;12.30;;;;;;;0.32;70.90;100715.38;106291;1316;23372;-57
2021/11/17 09:13:50;;;;;;;27.50;12.70;;;;;;;0.37;70.56;100709.11;106465;1313;22564;-57
2021/11/17 09:16:18;;;;;;;24.20;12.50;;;;;;;0.44;70.33;100706.81;106336;1313;142903;-57
2021/11/17 09:18:50;;;;;;;28.80;14.20;;;;;;;0.49;69.79;100700.92;106420;1313;22542;-57
2021/11/17 09:23:29;;;;;;;23.20;12.30;;;;;;;0.53;68.92;100693.33;99881;1345;545818;-55
2021/11/17 09:25:58;;;;;;;27.40;12.40;;;;;;;0.52;68.67;100688.64;101742;1323;25104;-56
2021/11/17 09:28:28;;;;;;;19.70;11.30;;;;;;;0.53;68.52;100685.06;105168;1329;137660;-57
2021/11/17 09:30:56;;;;;;;22.70;12.20;;;;;;;0.55;68.65;100678.96;105342;1329;22558;-58
2021/11/17 09:33:25;;;;;;;19.20;12.40;;;;;;;0.58;68.50;100677.72;104840;1330;138337;-57
2021/11/17 09:35:53;;;;;;;23.20;13.30;;;;;;;0.62;68.36;100676.95;104731;1326;22491;-57
2021/11/17 09:38:21;;;;;;;20.10;12.50;;;;;;;0.65;68.21;100677.27;105458;1329;137881;-57
2021/11/17 09:40:53;;;;;;;19.40;11.50;;;;;;;0.70;68.29;100673.19;105668;1326;22433;-59
2021/11/17 09:43:24;;;;;;;19.20;12.00;;;;;;;0.73;67.87;100673.98;105427;1323;23179;-59
2021/11/17 09:45:52;;;;;;;17.30;10.60;;;;;;;0.75;67.75;100671.20;105340;1325;137947;-59
2021/11/17 09:48:26;;;;;;;17.20;10.50;;;;;;;0.78;67.62;100668.73;105629;1326;22275;-59
2021/11/17 09:51:34;;;;;;;34.60;15.70;;;;;;;0.82;67.27;100666.39;105512;1325;137985;-59
2021/11/17 09:54:23;;;;;;;65.80;21.20;;;;;;;0.84;67.15;100656.88;104554;1338;22515;-59
2021/11/17 09:57:03;;;;;;;;;;;;;;;0.87;66.77;100652.42;104408;1334;140173;-59
2021/11/17 09:59:48;;;;;;;159.10;64.60;;;;;;;0.90;66.50;100649.91;104366;1340;22733;-59
2021/11/17 10:02:40;;;;;;;52.20;26.20;;;;;;;0.93;66.01;100651.05;104451;1335;138222;-59
2021/11/17 10:05:17;;;;;;;30.50;13.70;;;;;;;0.94;65.61;100654.17;104376;1337;22568;-59
2021/11/17 10:13:25;;;;;;;17.80;11.30;;;;;;;0.96;65.15;100649.92;104522;1338;23119;-60
2021/11/17 10:15:54;;;;;;;17.70;9.90;;;;;;;0.97;65.19;100643.58;104436;1334;139032;-61
2021/11/17 10:18:36;;;;;;;21.20;10.50;;;;;;;0.99;65.33;100645.13;104529;1340;22473;-61
2021/11/17 10:21:12;;;;;;;18.20;10.40;;;;;;;1.04;65.42;100642.62;104381;1337;139074;-61
2021/11/17 10:23:43;;;;;;;15.60;9.30;;;;;;;1.06;64.95;100641.31;104508;1337;22504;-61
2021/11/17 10:26:13;;;;;;;21.00;9.90;;;;;;;1.08;64.81;100636.83;105112;1332;22574;-60
2021/11/17 10:28:53;;;;;;;17.10;10.40;;;;;;;1.13;64.75;100642.91;105062;1328;137546;-61
2021/11/17 10:31:21;;;;;;;17.50;9.50;;;;;;;1.16;64.15;100635.44;105235;1328;22526;-61
2021/11/17 10:34:18;;;;;;;19.00;10.20;;;;;;;1.19;64.30;100632.44;105204;1325;138725;-59
2021/11/17 10:36:57;;;;;;;22.00;10.70;;;;;;;1.22;63.79;100632.41;105326;1325;23529;-59
2021/11/17 10:39:31;;;;;;;25.30;12.50;;;;;;;1.25;63.61;100629.05;105165;1328;138007;-59
2021/11/17 10:42:01;;;;;;;18.50;11.20;;;;;;;1.26;63.52;100625.73;105068;1328;22423;-59
2021/11/17 10:44:50;;;;;;;18.10;10.20;;;;;;;1.28;63.37;100626.20;105076;1329;138531;-59
2021/11/17 10:47:20;;;;;;;19.10;11.60;;;;;;;1.29;62.70;100616.94;105256;1328;22493;-59
2021/11/17 10:49:55;;;;;;;21.30;12.50;;;;;;;1.28;62.55;100608.14;105228;1332;23266;-59
2021/11/17 10:52:38;;;;;;;19.00;10.60;;;;;;;1.30;62.54;100604.67;105226;1330;138357;-59
2021/11/17 10:55:19;;;;;;;23.40;11.70;;;;;;;1.33;62.87;100604.09;104983;1334;22740;-59
2021/11/17 10:57:47;;;;;;;21.00;10.90;;;;;;;1.37;62.79;100603.48;105139;1328;138836;-58
2021/11/17 11:00:18;;;;;;;18.20;11.10;;;;;;;1.40;62.49;100603.48;105325;1330;22471;-59
2021/11/17 11:02:46;;;;;;;18.50;11.20;;;;;;;1.41;62.58;100598.20;105238;1331;138719;-59
2021/11/17 11:05:17;;;;;;;22.30;12.60;;;;;;;1.43;62.19;100596.64;105052;1334;22519;-59
2021/11/17 11:07:54;;;;;;;23.00;11.20;;;;;;;1.44;62.13;100591.13;105099;1328;23106;-59
2021/11/17 11:10:28;;;;;;;22.10;11.90;;;;;;;1.44;62.08;100587.48;104217;1336;138294;-59
2021/11/17 11:12:56;;;;;;;24.10;12.00;;;;;;;1.44;62.12;100583.56;105064;1328;22648;-59
2021/11/17 11:15:31;;;;;;;24.90;12.50;;;;;;;1.45;62.32;100578.08;104712;1328;138102;-59
2021/11/17 11:18:12;;;;;;;21.70;12.60;;;;;;;1.47;62.45;100568.53;104911;1334;22418;-59
2021/11/17 11:20:48;;;;;;;24.30;13.50;;;;;;;1.51;62.18;100567.55;105067;1329;138117;-59
2021/11/17 11:23:20;;;;;;;20.40;12.10;;;;;;;1.55;62.08;100565.66;105176;1331;22534;-59
2021/11/17 11:26:16;;;;;;;18.40;11.20;;;;;;;1.59;62.17;100562.02;105463;1330;23275;-59
2021/11/17 11:28:48;;;;;;;19.90;11.40;;;;;;;1.63;61.68;100557.42;105373;1326;137872;-59
2021/11/17 11:31:26;;;;;;;23.30;10.90;;;;;;;1.63;61.63;100554.85;105212;1331;22536;-59
2021/11/17 11:33:54;;;;;;;19.90;10.90;;;;;;;1.64;61.31;100551.75;105094;1332;139084;-59
2021/11/17 11:36:22;;;;;;;24.90;10.90;;;;;;;1.65;61.41;100550.84;105445;1331;22387;-58
2021/11/17 11:38:52;;;;;;;18.80;10.60;;;;;;;1.68;61.55;100551.67;105348;1329;139115;-59
2021/11/17 11:41:34;;;;;;;72.60;36.20;;;;;;;1.70;61.35;100549.92;105198;1331;24671;-59
2021/11/17 11:44:17;;;;;;;41.20;22.60;;;;;;;1.72;61.26;100545.42;105444;1329;22432;-59
2021/11/17 11:46:57;;;;;;;25.60;13.00;;;;;;;1.74;61.28;100543.40;105349;1326;137699;-59
2021/11/17 11:49:36;;;;;;;20.50;13.70;;;;;;;1.74;60.98;100537.81;105431;1330;23119;-59
2021/11/17 11:52:11;;;;;;;20.20;12.80;;;;;;;1.73;60.92;100539.66;105371;1325;138895;-59
2021/11/17 11:54:58;;;;;;;18.40;9.70;;;;;;;1.73;60.90;100533.68;105459;1329;23303;-59
2021/11/17 11:57:45;;;;;;;30.60;14.80;;;;;;;1.72;60.61;100530.57;105268;1330;137013;-59
2021/11/17 12:00:35;;;;;;;23.70;13.90;;;;;;;1.73;60.27;100525.66;105361;1325;22457;-59
2021/11/17 12:03:06;;;;;;;26.20;11.40;;;;;;;1.72;60.27;100526.94;105333;1329;137557;-59
2021/11/17 12:05:38;;;;;;;30.20;14.00;;;;;;;1.72;60.07;100522.35;103154;1325;22711;-59
2021/11/17 12:08:29;;;;;;;24.00;14.60;;;;;;;1.72;60.07;100520.94;101389;1329;22643;-59
2021/11/17 12:11:04;;;;;;;30.00;17.20;;;;;;;1.72;60.25;100518.17;101259;1325;137130;-59
2021/11/17 12:13:44;;;;;;;29.40;15.40;;;;;;;1.73;60.04;100519.55;101311;1332;25630;-57
2021/11/17 12:16:12;;;;;;;22.90;13.10;;;;;;;1.69;59.97;100515.10;101341;1326;138264;-58
2021/11/17 12:18:48;;;;;;;22.50;12.70;;;;;;;1.71;59.64;100513.89;105292;1332;23211;-59
2021/11/17 12:21:31;;;;;;;25.40;12.90;;;;;;;1.70;59.77;100511.81;105176;1325;138996;-59
2021/11/17 12:24:06;;;;;;;19.50;10.60;;;;;;;1.71;59.89;100513.19;104561;1326;22674;-60
2021/11/17 12:26:41;;;;;;;23.50;12.40;;;;;;;1.71;59.54;100510.44;105326;1330;23566;-59
2021/11/17 12:29:21;;;;;;;21.60;12.10;;;;;;;1.72;59.61;100508.89;104920;1332;138121;-58
2021/11/17 12:31:56;;;;;;;21.90;12.20;;;;;;;1.72;59.40;100510.73;105415;1329;22496;-57
2021/11/17 12:34:35;;;;;;;20.20;11.50;;;;;;;1.73;59.30;100514.63;105321;1332;138322;-59
2021/11/17 12:37:08;;;;;;;19.90;11.30;;;;;;;1.75;59.27;100508.03;105409;1332;23042;-60
2021/11/17 12:39:48;;;;;;;23.70;12.40;;;;;;;1.76;59.27;100506.25;105325;1332;137910;-60
2021/11/17 12:42:23;;;;;;;26.60;15.60;;;;;;;1.77;58.93;100507.18;105430;1331;22499;-60
2021/11/17 12:44:51;;;;;;;28.50;15.20;;;;;;;1.78;58.81;100505.64;105237;1326;138604;-61
2021/11/17 12:47:23;;;;;;;31.90;16.70;;;;;;;1.80;58.67;100505.33;105419;1331;22633;-62
2021/11/17 12:50:03;;;;;;;52.80;22.90;;;;;;;1.81;58.52;100503.44;105417;1326;23339;-60
2021/11/17 12:52:52;;;;;;;49.70;22.10;;;;;;;1.81;58.76;100503.81;105065;1325;137391;-60
2021/11/17 12:55:36;;;;;;;37.60;18.10;;;;;;;1.80;58.77;100499.25;105219;1331;22420;-60
2021/11/17 12:58:04;;;;;;;61.10;23.40;;;;;;;1.78;58.97;100500.16;104985;1329;137299;-60
2021/11/17 13:00:45;;;;;;;41.10;21.00;;;;;;;1.76;58.72;100495.84;105366;1329;22547;-60
2021/11/17 13:03:49;;;;;;;48.60;21.70;;;;;;;1.76;58.52;100496.54;105357;1325;137748;-58
2021/11/17 13:06:19;;;;;;;33.90;15.60;;;;;;;1.75;58.70;100493.05;104656;1334;22441;-59
2021/11/17 13:09:06;;;;;;;35.40;18.30;;;;;;;1.74;58.70;100490.21;104576;1335;137658;-59
2021/11/17 13:11:34;;;;;;;48.30;20.90;;;;;;;1.73;58.77;100491.02;104663;1337;22872;-59
2021/11/17 13:14:13;;;;;;;42.00;18.50;;;;;;;1.72;58.53;100489.38;104651;1331;22635;-58
2021/11/17 13:16:44;;;;;;;54.50;22.80;;;;;;;1.71;58.74;100485.14;104352;1339;139265;-58
2021/11/17 13:19:30;;;;;;;34.90;19.00;;;;;;;1.71;58.67;100490.25;104541;1341;23165;-58
2021/11/17 13:22:26;;;;;;;39.80;18.00;;;;;;;1.69;58.81;100490.19;104364;1334;140059;-58
2021/11/17 13:25:18;;;;;;;47.70;21.20;;;;;;;1.68;58.76;100487.05;104491;1340;22524;-59
2021/11/17 13:27:51;;;;;;;43.60;23.70;;;;;;;1.65;58.76;100488.99;104339;1338;139739;-58
2021/11/17 13:30:31;;;;;;;60.50;28.50;;;;;;;1.61;58.77;100488.17;104461;1336;22637;-58
2021/11/17 13:33:21;;;;;;;51.10;25.30;;;;;;;1.56;58.76;100487.64;104352;1337;137696;-58
2021/11/17 13:36:11;;;;;;;37.40;17.80;;;;;;;1.50;58.72;100491.63;104517;1334;23883;-59
2021/11/17 13:38:53;;;;;;;25.20;15.20;;;;;;;1.43;58.71;100487.07;104669;1338;22488;-58
2021/11/17 13:41:41;;;;;;;34.50;16.40;;;;;;;1.35;58.66;100486.80;104607;1334;22616;-56
2021/11/17 13:44:10;;;;;;;29.10;15.60;;;;;;;1.31;58.84;100486.08;105239;1330;22501;-56
2021/11/17 13:47:12;;;;;;;33.60;15.30;;;;;;;1.27;58.93;100481.92;106058;1322;138409;-57
2021/11/17 13:49:43;;;;;;;24.30;14.50;;;;;;;1.23;59.08;100478.48;106055;1319;22509;-56
2021/11/17 13:52:12;;;;;;;35.80;19.30;;;;;;;1.18;59.03;100477.91;106021;1319;137985;-56
2021/11/17 13:54:40;;;;;;;51.50;25.90;;;;;;;1.14;59.00;100477.80;106126;1324;22454;-56
2021/11/17 13:57:10;;;;;;;30.60;17.50;;;;;;;1.09;58.81;100480.54;106128;1322;23485;-56
2021/11/17 13:59:38;;;;;;;38.50;19.10;;;;;;;1.05;59.30;100479.54;105897;1319;138524;-55
2021/11/17 14:02:07;;;;;;;49.80;22.80;;;;;;;1.01;59.10;100479.63;106106;1323;22477;-55
2021/11/17 14:04:36;;;;;;;43.90;21.90;;;;;;;0.97;58.79;100480.78;105567;1321;137646;-55
2021/11/17 14:07:04;;;;;;;38.80;19.20;;;;;;;0.93;59.26;100479.81;106139;1325;22436;-55
2021/11/17 14:09:32;;;;;;;50.10;22.80;;;;;;;0.89;59.53;100480.48;104882;1326;137706;-55
2021/11/17 14:12:02;;;;;;;49.70;23.90;;;;;;;0.85;59.41;100473.91;106133;1319;22487;-55
2021/11/17 14:14:30;;;;;;;75.10;49.30;;;;;;;0.82;59.48;100477.38;106189;1319;22483;-55
2021/11/17 14:16:58;;;;;;;46.50;30.50;;;;;;;0.77;59.64;100477.01;105984;1319;137490;-55
2021/11/17 14:19:27;;;;;;;50.50;22.60;;;;;;;0.73;59.56;100473.02;106088;1319;23384;-55
2021/11/17 14:21:56;;;;;;;42.20;18.70;;;;;;;0.68;59.54;100471.36;106054;1320;136614;-55